Vancleave, Mississippi
Current Conditions -  °F | °C
As of 9:58 AM on Wednesday 28 Jan 2015 (Local Time) from KBIX Reporting Station
Clear Clear  
Wind Chill: 54°   Ceiling: Unl
Heat Index: 54°   Visibility: 10mi
Dew Point: 35°   Wind: 7mph
Humidity: 49%   Direction: 80°E
Pressure: 30.29"   Gusts: NA
Location:  30.5758°N, 88.7489°W
Report Text: KBIX 281558Z AUTO 08006KT 10SM CLR 12/02 A3029 RMK AO2 SLP260 T01230017
Loading
Personal Weather Stations






























Interactive Weather Map New forecast layout! Learn more

10-Day Weather Forecast

Advertisements
Track Severe Weather on mobile